Observation data for Friona on 07/23/2019      Previous  Date       Current Mesonet Observations  Soil Data  Daily Summary Page  Observations in Plain Language
KFAS 230500Z 11003KT 20/14 A3036 RMK A01 T01950143  RH  075%=      5-min Rain = 0
KFAS 230505Z 12003KT 19/15 A3036 RMK A01 T01930146  RH  077%=      5-min Rain = 0
KFAS 230510Z 12003KT 19/14 A3037 RMK A01 T01900144  RH  078%=      5-min Rain = 0
KFAS 230515Z 12004KT 19/14 A3037 RMK A01 T01890144  RH  079%=      5-min Rain = 0
KFAS 230520Z 13004KT 19/14 A3037 RMK A01 T01870143  RH  079%=      5-min Rain = 0
KFAS 230525Z 13003KT 19/14 A3037 RMK A01 T01850142  RH  080%=      5-min Rain = 0
KFAS 230530Z 11002KT 18/14 A3037 RMK A01 T01840142  RH  080%=      5-min Rain = 0
KFAS 230535Z 10002KT 19/14 A3037 RMK A01 T01850144  RH  080%=      5-min Rain = 0
KFAS 230540Z 09003KT 19/15 A3037 RMK A01 T01880146  RH  080%=      5-min Rain = 0
KFAS 230545Z 08003KT 19/15 A3037 RMK A01 T01880149  RH  082%=      5-min Rain = 0
KFAS 230550Z 05003KT 19/15 A3037 RMK A01 T01850148  RH  083%=      5-min Rain = 0
KFAS 230555Z 06003KT 18/15 A3037 RMK A01 T01840149  RH  083%=      5-min Rain = 0
KFAS 230600Z 06004KT 19/15 A3037 RMK A01 T01870147  RH  081%=      5-min Rain = 0
KFAS 230605Z 06004KT 19/15 A3037 RMK A01 T01910146  RH  078%=      5-min Rain = 0
KFAS 230610Z 06004KT 19/15 A3037 RMK A01 T01920145  RH  078%=      5-min Rain = 0
KFAS 230615Z 07005KT 19/15 A3037 RMK A01 T01920146  RH  078%=      5-min Rain = 0
KFAS 230620Z 07005KT 19/14 A3037 RMK A01 T01920144  RH  077%=      5-min Rain = 0
KFAS 230625Z 07005KT 19/14 A3037 RMK A01 T01910143  RH  077%=      5-min Rain = 0
KFAS 230630Z 07005KT 19/14 A3037 RMK A01 T01910143  RH  077%=      5-min Rain = 0
KFAS 230635Z 08004KT 19/14 A3037 RMK A01 T01910143  RH  077%=      5-min Rain = 0
KFAS 230640Z 09005KT 19/14 A3037 RMK A01 T01910143  RH  077%=      5-min Rain = 0
KFAS 230645Z 08005KT 19/14 A3037 RMK A01 T01910140  RH  075%=      5-min Rain = 0
KFAS 230650Z 08005KT 19/14 A3037 RMK A01 T01920140  RH  075%=      5-min Rain = 0
KFAS 230655Z 09005KT 19/14 A3037 RMK A01 T01910139  RH  075%=      5-min Rain = 0
KFAS 230700Z 10005KT 19/14 A3037 RMK A01 T01910139  RH  075%=      5-min Rain = 0
KFAS 230705Z 10005KT 19/14 A3037 RMK A01 T01890140  RH  076%=      5-min Rain = 0
KFAS 230710Z 09004KT 19/14 A3037 RMK A01 T01880140  RH  077%=      5-min Rain = 0
KFAS 230715Z 09005KT 19/14 A3037 RMK A01 T01870140  RH  077%=      5-min Rain = 0
KFAS 230720Z 07003KT 19/14 A3037 RMK A01 T01860139  RH  077%=      5-min Rain = 0
KFAS 230725Z 08003KT 18/14 A3037 RMK A01 T01840139  RH  078%=      5-min Rain = 0
KFAS 230730Z 09004KT 18/14 A3038 RMK A01 T01830139  RH  079%=      5-min Rain = 0
KFAS 230735Z 10005KT 18/14 A3037 RMK A01 T01830139  RH  079%=      5-min Rain = 0
KFAS 230740Z 10005KT 18/14 A3037 RMK A01 T01810139  RH  080%=      5-min Rain = 0
KFAS 230745Z 09005KT 18/14 A3037 RMK A01 T01800139  RH  080%=      5-min Rain = 0
KFAS 230750Z 09005KT 18/14 A3037 RMK A01 T01790138  RH  080%=      5-min Rain = 0
KFAS 230755Z 09005KT 18/14 A3037 RMK A01 T01800137  RH  080%=      5-min Rain = 0
KFAS 230800Z 09004KT 18/14 A3036 RMK A01 T01790137  RH  080%=      5-min Rain = 0
KFAS 230805Z 09004KT 18/14 A3036 RMK A01 T01780137  RH  080%=      5-min Rain = 0
KFAS 230810Z 08003KT 18/14 A3036 RMK A01 T01780136  RH  080%=      5-min Rain = 0
KFAS 230815Z 05002KT 17/14 A3036 RMK A01 T01740137  RH  082%=      5-min Rain = 0
KFAS 230820Z 02001KT 17/14 A3036 RMK A01 T01690138  RH  086%=      5-min Rain = 0
KFAS 230825Z 01001KT 17/14 A3036 RMK A01 T01670137  RH  086%=      5-min Rain = 0
KFAS 230830Z 00000KT 17/14 A3036 RMK A01 T01670137  RH  086%=      5-min Rain = 0
KFAS 230835Z 00000KT 16/14 A3036 RMK A01 T01640135  RH  087%=      5-min Rain = 0
KFAS 230840Z 06001KT 17/14 A3036 RMK A01 T01660137  RH  086%=      5-min Rain = 0
KFAS 230845Z 03002KT 17/14 A3036 RMK A01 T01690135  RH  084%=      5-min Rain = 0
KFAS 230850Z 02002KT 17/13 A3036 RMK A01 T01670134  RH  084%=      5-min Rain = 0
KFAS 230855Z 05001KT 17/13 A3036 RMK A01 T01650134  RH  085%=      5-min Rain = 0
KFAS 230900Z 11001KT 16/13 A3036 RMK A01 T01640134  RH  086%=      5-min Rain = 0
KFAS 230905Z 11002KT 16/13 A3036 RMK A01 T01630133  RH  086%=      5-min Rain = 0
KFAS 230910Z 09001KT 16/13 A3036 RMK A01 T01610132  RH  086%=      5-min Rain = 0
KFAS 230915Z 11001KT 16/13 A3036 RMK A01 T01580132  RH  088%=      5-min Rain = 0
KFAS 230920Z 16002KT 16/13 A3036 RMK A01 T01590133  RH  088%=      5-min Rain = 0
KFAS 230925Z 16003KT 16/13 A3036 RMK A01 T01550129  RH  088%=      5-min Rain = 0
KFAS 230930Z 17003KT 15/13 A3035 RMK A01 T01530130  RH  090%=      5-min Rain = 0
KFAS 230935Z 15004KT 16/13 A3035 RMK A01 T01550128  RH  087%=      5-min Rain = 0
KFAS 230940Z 15003KT 16/13 A3035 RMK A01 T01550129  RH  088%=      5-min Rain = 0
KFAS 230945Z 13003KT 16/13 A3035 RMK A01 T01590132  RH  087%=      5-min Rain = 0
KFAS 230950Z 13003KT 16/13 A3035 RMK A01 T01630132  RH  085%=      5-min Rain = 0
KFAS 230955Z 14005KT 16/13 A3035 RMK A01 T01640131  RH  084%=      5-min Rain = 0
KFAS 231000Z 14004KT 16/13 A3034 RMK A01 T01610129  RH  084%=      5-min Rain = 0
KFAS 231005Z 15004KT 16/13 A3034 RMK A01 T01590130  RH  086%=      5-min Rain = 0
KFAS 231010Z 15003KT 16/13 A3034 RMK A01 T01570130  RH  087%=      5-min Rain = 0
KFAS 231015Z 16004KT 16/13 A3034 RMK A01 T01560128  RH  087%=      5-min Rain = 0
KFAS 231020Z 16005KT 15/12 A3034 RMK A01 T01540124  RH  085%=      5-min Rain = 0
KFAS 231025Z 14003KT 15/13 A3035 RMK A01 T01520125  RH  087%=      5-min Rain = 0
KFAS 231030Z 15003KT 15/13 A3035 RMK A01 T01540128  RH  088%=      5-min Rain = 0
KFAS 231035Z 15003KT 16/13 A3035 RMK A01 T01550128  RH  087%=      5-min Rain = 0
KFAS 231040Z 14002KT 16/13 A3035 RMK A01 T01560128  RH  087%=      5-min Rain = 0
KFAS 231045Z 13002KT 16/13 A3035 RMK A01 T01560128  RH  087%=      5-min Rain = 0
KFAS 231050Z 13002KT 16/13 A3035 RMK A01 T01550128  RH  087%=      5-min Rain = 0
KFAS 231055Z 12001KT 16/13 A3036 RMK A01 T01550128  RH  087%=      5-min Rain = 0
KFAS 231100Z 12000KT 15/13 A3036 RMK A01 T01510127  RH  089%=      5-min Rain = 0
KFAS 231105Z 07000KT 15/13 A3036 RMK A01 T01490127  RH  090%=      5-min Rain = 0
KFAS 231110Z 04001KT 15/13 A3037 RMK A01 T01510129  RH  090%=      5-min Rain = 0
KFAS 231115Z 00000KT 15/13 A3037 RMK A01 T01500127  RH  090%=      5-min Rain = 0
KFAS 231120Z 05000KT 15/13 A3037 RMK A01 T01490125  RH  089%=      5-min Rain = 0
KFAS 231125Z 06001KT 15/13 A3037 RMK A01 T01500125  RH  089%=      5-min Rain = 0
KFAS 231130Z 04002KT 15/12 A3037 RMK A01 T01450121  RH  089%=      5-min Rain = 0
KFAS 231135Z 05002KT 15/12 A3037 RMK A01 T01450123  RH  090%=      5-min Rain = 0
KFAS 231140Z 07003KT 15/13 A3037 RMK A01 T01460126  RH  091%=      5-min Rain = 0
KFAS 231145Z 07003KT 15/13 A3037 RMK A01 T01490126  RH  090%=      5-min Rain = 0
KFAS 231150Z 08004KT 15/12 A3037 RMK A01 T01510124  RH  088%=      5-min Rain = 0
KFAS 231155Z 08005KT 15/12 A3037 RMK A01 T01510123  RH  086%=      5-min Rain = 0
KFAS 231200Z 08006KT 15/12 A3037 RMK A01 T01520123  RH  086%=      5-min Rain = 0
KFAS 231205Z 07006KT 15/12 A3038 RMK A01 T01530124  RH  086%=      5-min Rain = 0
KFAS 231210Z 06005KT 15/13 A3038 RMK A01 T01530125  RH  087%=      5-min Rain = 0
KFAS 231215Z 05005KT 15/12 A3038 RMK A01 T01510123  RH  087%=      5-min Rain = 0
KFAS 231220Z 05005KT 15/12 A3038 RMK A01 T01520123  RH  086%=      5-min Rain = 0
KFAS 231225Z 04005KT 15/12 A3038 RMK A01 T01520123  RH  086%=      5-min Rain = 0
KFAS 231230Z 04005KT 15/12 A3038 RMK A01 T01540124  RH  085%=      5-min Rain = 0
KFAS 231235Z 04004KT 16/13 A3038 RMK A01 T01560125  RH  085%=      5-min Rain = 0
KFAS 231240Z 05003KT 16/13 A3038 RMK A01 T01590126  RH  084%=      5-min Rain = 0
KFAS 231245Z 05003KT 16/13 A3038 RMK A01 T01600128  RH  084%=      5-min Rain = 0
KFAS 231250Z 06002KT 17/13 A3038 RMK A01 T01660132  RH  084%=      5-min Rain = 0
KFAS 231255Z 18001KT 17/13 A3038 RMK A01 T01720133  RH  081%=      5-min Rain = 0
KFAS 231300Z 19002KT 17/13 A3039 RMK A01 T01710134  RH  082%=      5-min Rain = 0
KFAS 231305Z 18001KT 17/13 A3039 RMK A01 T01720134  RH  082%=      5-min Rain = 0
KFAS 231310Z 23001KT 18/14 A3039 RMK A01 T01760135  RH  080%=      5-min Rain = 0
KFAS 231315Z 24000KT 18/14 A3039 RMK A01 T01790135  RH  079%=      5-min Rain = 0
KFAS 231320Z 16000KT 19/13 A3039 RMK A01 T01860134  RH  075%=      5-min Rain = 0
KFAS 231325Z 13001KT 19/13 A3039 RMK A01 T01920132  RH  071%=      5-min Rain = 0
KFAS 231330Z 11001KT 20/13 A304 RMK A01 T01980132  RH  068%=      5-min Rain = 0
KFAS 231335Z 08001KT 20/14 A304 RMK A01 T01980135  RH  070%=      5-min Rain = 0
KFAS 231340Z 16002KT 20/14 A304 RMK A01 T02030138  RH  069%=      5-min Rain = 0
KFAS 231345Z 14002KT 20/14 A304 RMK A01 T02030135  RH  068%=      5-min Rain = 0
KFAS 231350Z 14003KT 21/13 A304 RMK A01 T02050134  RH  067%=      5-min Rain = 0
KFAS 231355Z 15002KT 21/13 A304 RMK A01 T02050133  RH  066%=      5-min Rain = 0
KFAS 231400Z 15004KT 20/14 A304 RMK A01 T02020135  RH  068%=      5-min Rain = 0
KFAS 231405Z 16007KT 21/14 A304 RMK A01 T02060137  RH  067%=      5-min Rain = 0
KFAS 231410Z 15007KT 22/14 A304 RMK A01 T02160135  RH  063%=      5-min Rain = 0
KFAS 231415Z 15006KT 22/14 A304 RMK A01 T02230135  RH  060%=      5-min Rain = 0
KFAS 231420Z 15008KT 23/14 A304 RMK A01 T02250135  RH  059%=      5-min Rain = 0
KFAS 231425Z 17006KT 22/13 A3041 RMK A01 T02210133  RH  060%=      5-min Rain = 0
KFAS 231430Z 17007KT 22/13 A3041 RMK A01 T02180132  RH  060%=      5-min Rain = 0
KFAS 231435Z 18008KT 22/13 A3041 RMK A01 T02160132  RH  061%=      5-min Rain = 0
KFAS 231440Z 17009KT 22/13 A304 RMK A01 T02180134  RH  061%=      5-min Rain = 0
KFAS 231445Z 17008KT 23/14 A304 RMK A01 T02250135  RH  059%=      5-min Rain = 0
KFAS 231450Z 18006KT 23/14 A304 RMK A01 T02270136  RH  059%=      5-min Rain = 0
KFAS 231455Z 17006KT 23/13 A304 RMK A01 T02280133  RH  057%=      5-min Rain = 0
KFAS 231500Z 18006KT 23/13 A304 RMK A01 T02300132  RH  057%=      5-min Rain = 0
KFAS 231505Z 16006KT 23/13 A304 RMK A01 T02340131  RH  054%=      5-min Rain = 0
KFAS 231510Z 16006KT 23/13 A304 RMK A01 T02330126  RH  053%=      5-min Rain = 0
KFAS 231515Z 15007KT 23/13 A304 RMK A01 T02310126  RH  053%=      5-min Rain = 0
KFAS 231520Z 17006KT 23/13 A304 RMK A01 T02290125  RH  054%=      5-min Rain = 0
KFAS 231525Z 16007KT 23/13 A304 RMK A01 T02340126  RH  053%=      5-min Rain = 0
KFAS 231530Z 17006KT 24/13 A304 RMK A01 T02380127  RH  052%=      5-min Rain = 0
KFAS 231535Z 16006KT 24/13 A304 RMK A01 T02420126  RH  050%=      5-min Rain = 0
KFAS 231540Z 16007KT 24/12 A304 RMK A01 T02400123  RH  050%=      5-min Rain = 0
KFAS 231545Z 18007KT 24/13 A304 RMK A01 T02410125  RH  050%=      5-min Rain = 0
KFAS 231550Z 17007KT 24/13 A304 RMK A01 T02400125  RH  051%=      5-min Rain = 0
KFAS 231555Z 15006KT 24/13 A304 RMK A01 T02430129  RH  051%=      5-min Rain = 0
KFAS 231600Z 16007KT 25/13 A3039 RMK A01 T02460131  RH  051%=      5-min Rain = 0
KFAS 231605Z 15008KT 24/13 A3039 RMK A01 T02410131  RH  052%=      5-min Rain = 0
KFAS 231610Z 14007KT 25/13 A304 RMK A01 T02450130  RH  051%=      5-min Rain = 0
KFAS 231615Z 15007KT 24/13 A3039 RMK A01 T02410132  RH  053%=      5-min Rain = 0
KFAS 231620Z 14004KT 24/13 A3039 RMK A01 T02380130  RH  053%=      5-min Rain = 0
KFAS 231625Z 16004KT 24/13 A3039 RMK A01 T02440133  RH  052%=      5-min Rain = 0
KFAS 231630Z 17002KT 25/13 A3039 RMK A01 T02460131  RH  051%=      5-min Rain = 0
KFAS 231635Z 13003KT 25/13 A3039 RMK A01 T02490133  RH  050%=      5-min Rain = 0
KFAS 231640Z 11004KT 25/13 A3039 RMK A01 T02540131  RH  048%=      5-min Rain = 0
KFAS 231645Z 07003KT 25/13 A3039 RMK A01 T02490128  RH  049%=      5-min Rain = 0
KFAS 231650Z 04001KT 25/13 A3039 RMK A01 T02470126  RH  049%=      5-min Rain = 0
KFAS 231655Z 24002KT 24/13 A3039 RMK A01 T02440126  RH  050%=      5-min Rain = 0
KFAS 231700Z 20003KT 24/13 A3038 RMK A01 T02440129  RH  051%=      5-min Rain = 0
KFAS 231705Z 20002KT 25/13 A3038 RMK A01 T02500127  RH  048%=      5-min Rain = 0
KFAS 231710Z 02002KT 25/13 A3038 RMK A01 T02510127  RH  048%=      5-min Rain = 0
KFAS 231715Z 06002KT 25/13 A3038 RMK A01 T02520131  RH  049%=      5-min Rain = 0
KFAS 231720Z 05002KT 26/13 A3038 RMK A01 T02550130  RH  048%=      5-min Rain = 0
KFAS 231725Z 15004KT 26/13 A3037 RMK A01 T02590133  RH  048%=      5-min Rain = 0
KFAS 231730Z 17004KT 26/13 A3037 RMK A01 T02620132  RH  046%=      5-min Rain = 0
KFAS 231735Z 16002KT 26/13 A3037 RMK A01 T02640134  RH  046%=      5-min Rain = 0
KFAS 231740Z 16001KT 26/13 A3037 RMK A01 T02600131  RH  047%=      5-min Rain = 0
KFAS 231745Z 16001KT 26/13 A3037 RMK A01 T02590130  RH  047%=      5-min Rain = 0
KFAS 231750Z 17002KT 27/14 A3036 RMK A01 T02660136  RH  047%=      5-min Rain = 0
KFAS 231755Z 14003KT 27/13 A3036 RMK A01 T02680132  RH  045%=      5-min Rain = 0
KFAS 231800Z 14002KT 26/13 A3036 RMK A01 T02580129  RH  047%=      5-min Rain = 0
KFAS 231805Z 12002KT 26/13 A3036 RMK A01 T02610132  RH  047%=      5-min Rain = 0
KFAS 231810Z 20002KT 27/13 A3036 RMK A01 T02670134  RH  046%=      5-min Rain = 0
KFAS 231815Z 21003KT 27/13 A3035 RMK A01 T02720133  RH  044%=      5-min Rain = 0
KFAS 231820Z 24003G8KT 27/13 A3035 RMK A01 T02670130  RH  044%=      5-min Rain = 0
KFAS 231825Z 30001KT 26/13 A3035 RMK A01 T02640128  RH  045%=      5-min Rain = 0
KFAS 231830Z 35001KT 26/13 A3035 RMK A01 T02630131  RH  046%=      5-min Rain = 0
KFAS 231835Z 13003KT 27/13 A3035 RMK A01 T02690133  RH  045%=      5-min Rain = 0
KFAS 231840Z 11002KT 27/13 A3035 RMK A01 T02720133  RH  044%=      5-min Rain = 0
KFAS 231845Z 07003KT 27/14 A3034 RMK A01 T02740135  RH  044%=      5-min Rain = 0
KFAS 231850Z 06003KT 27/13 A3034 RMK A01 T02720131  RH  043%=      5-min Rain = 0
KFAS 231855Z 09002KT 28/13 A3034 RMK A01 T02750134  RH  043%=      5-min Rain = 0
KFAS 231900Z 12002KT 27/13 A3034 RMK A01 T02710127  RH  043%=      5-min Rain = 0
KFAS 231905Z 03002KT 27/13 A3034 RMK A01 T02710131  RH  044%=      5-min Rain = 0
KFAS 231910Z 19003KT 28/13 A3033 RMK A01 T02790132  RH  042%=      5-min Rain = 0
KFAS 231915Z 21007KT 28/13 A3033 RMK A01 T02810134  RH  042%=      5-min Rain = 0
KFAS 231920Z 23006G12KT 28/13 A3033 RMK A01 T02760131  RH  042%=      5-min Rain = 0
KFAS 231925Z 19004KT 28/13 A3033 RMK A01 T02750133  RH  044%=      5-min Rain = 0
KFAS 231930Z 16006KT 28/13 A3033 RMK A01 T02810132  RH  041%=      5-min Rain = 0
KFAS 231935Z 11005KT 28/13 A3032 RMK A01 T02810133  RH  042%=      5-min Rain = 0
KFAS 231940Z 17004KT 28/13 A3032 RMK A01 T02840133  RH  041%=      5-min Rain = 0
KFAS 231945Z 08004KT 28/13 A3032 RMK A01 T02830133  RH  041%=      5-min Rain = 0
KFAS 231950Z 13007KT 29/14 A3032 RMK A01 T02850139  RH  042%=      5-min Rain = 0
KFAS 231955Z 15008KT 29/13 A3032 RMK A01 T02870132  RH  040%=      5-min Rain = 0
KFAS 232000Z 16006G11KT 28/13 A3032 RMK A01 T02810131  RH  041%=      5-min Rain = 0
KFAS 232005Z 16005KT 28/13 A3032 RMK A01 T02770127  RH  041%=      5-min Rain = 0
KFAS 232010Z 11002KT 28/13 A3031 RMK A01 T02760128  RH  042%=      5-min Rain = 0
KFAS 232015Z 14007KT 27/14 A3031 RMK A01 T02740136  RH  045%=      5-min Rain = 0
KFAS 232020Z 10005KT 27/13 A3031 RMK A01 T02720133  RH  044%=      5-min Rain = 0
KFAS 232025Z 09004KT 27/13 A3031 RMK A01 T02720134  RH  044%=      5-min Rain = 0
KFAS 232030Z 17003KT 28/13 A3031 RMK A01 T02760129  RH  042%=      5-min Rain = 0
KFAS 232035Z 12005KT 28/14 A3031 RMK A01 T02790136  RH  043%=      5-min Rain = 0
KFAS 232040Z 13006KT 28/13 A3031 RMK A01 T02760132  RH  043%=      5-min Rain = 0
KFAS 232045Z 12004G9KT 27/13 A303 RMK A01 T02740128  RH  042%=      5-min Rain = 0
KFAS 232050Z 15005G10KT 28/13 A303 RMK A01 T02800133  RH  042%=      5-min Rain = 0
KFAS 232055Z 15005G11KT 29/12 A303 RMK A01 T02910123  RH  037%=      5-min Rain = 0
KFAS 232100Z 13005KT 29/13 A303 RMK A01 T02870126  RH  039%=      5-min Rain = 0
KFAS 232105Z 16008KT 28/13 A303 RMK A01 T02830130  RH  041%=      5-min Rain = 0
KFAS 232110Z 14007KT 28/14 A303 RMK A01 T02810135  RH  042%=      5-min Rain = 0
KFAS 232115Z 14007G12KT 29/13 A303 RMK A01 T02870130  RH  039%=      5-min Rain = 0
KFAS 232120Z 14007KT 29/13 A3029 RMK A01 T02910133  RH  039%=      5-min Rain = 0
KFAS 232125Z 12005KT 29/13 A3029 RMK A01 T02880133  RH  040%=      5-min Rain = 0
KFAS 232130Z 13008KT 29/14 A3029 RMK A01 T02910143  RH  042%=      5-min Rain = 0
KFAS 232135Z 11007KT 29/14 A3029 RMK A01 T02890142  RH  042%=      5-min Rain = 0
KFAS 232140Z 09006KT 29/13 A3028 RMK A01 T02870134  RH  041%=      5-min Rain = 0
KFAS 232145Z 11007G12KT 28/14 A3028 RMK A01 T02840136  RH  042%=      5-min Rain = 0
KFAS 232150Z 12008KT 27/13 A3028 RMK A01 T02730131  RH  043%=      5-min Rain = 0
KFAS 232155Z 11004G11KT 27/13 A3028 RMK A01 T02730129  RH  043%=      5-min Rain = 0
KFAS 232200Z 11007KT 28/14 A3028 RMK A01 T02840139  RH  043%=      5-min Rain = 0
KFAS 232205Z 12007KT 28/13 A3028 RMK A01 T02840132  RH  041%=      5-min Rain = 0
KFAS 232210Z 10004KT 29/13 A3028 RMK A01 T02860125  RH  038%=      5-min Rain = 0
KFAS 232215Z 07003KT 29/12 A3027 RMK A01 T02870120  RH  037%=      5-min Rain = 0
KFAS 232220Z 18004G10KT 29/12 A3027 RMK A01 T02890123  RH  037%=      5-min Rain = 0
KFAS 232225Z 19005KT 29/13 A3027 RMK A01 T02910126  RH  038%=      5-min Rain = 0
KFAS 232230Z 17005KT 29/13 A3027 RMK A01 T02930126  RH  037%=      5-min Rain = 0
KFAS 232235Z 18004KT 29/13 A3026 RMK A01 T02940125  RH  037%=      5-min Rain = 0
KFAS 232240Z 15004KT 30/13 A3026 RMK A01 T02960125  RH  036%=      5-min Rain = 0
KFAS 232245Z 06005KT 29/12 A3026 RMK A01 T02930123  RH  036%=      5-min Rain = 0
KFAS 232250Z 02006KT 30/12 A3026 RMK A01 T02950122  RH  036%=      5-min Rain = 0
KFAS 232255Z 08004KT 29/12 A3026 RMK A01 T02930124  RH  037%=      5-min Rain = 0
KFAS 232300Z 11004KT 29/12 A3025 RMK A01 T02940122  RH  036%=      5-min Rain = 0
KFAS 232305Z 12005G10KT 29/13 A3025 RMK A01 T02940128  RH  038%=      5-min Rain = 0
KFAS 232310Z 13008KT 29/13 A3025 RMK A01 T02900129  RH  039%=      5-min Rain = 0
KFAS 232315Z 11007KT 28/13 A3025 RMK A01 T02830132  RH  041%=      5-min Rain = 0
KFAS 232320Z 12009KT 27/13 A3025 RMK A01 T02720131  RH  043%=      5-min Rain = 0
KFAS 232325Z 12006KT 27/14 A3025 RMK A01 T02700136  RH  045%=      5-min Rain = 0
KFAS 232330Z 13008KT 27/13 A3025 RMK A01 T02660134  RH  046%=      5-min Rain = 0
KFAS 232335Z 14008KT 27/13 A3025 RMK A01 T02650131  RH  046%=      5-min Rain = 0
KFAS 232340Z 14008KT 27/13 A3024 RMK A01 T02650126  RH  044%=      5-min Rain = 0
KFAS 232345Z 13006KT 26/13 A3024 RMK A01 T02640133  RH  046%=      5-min Rain = 0
KFAS 232350Z 13007KT 26/13 A3024 RMK A01 T02610132  RH  047%=      5-min Rain = 0
KFAS 232355Z 15006KT 27/13 A3024 RMK A01 T02650125  RH  044%=      5-min Rain = 0
KFAS 240000Z 15004KT 27/13 A3024 RMK A01 T02720131  RH  043%=      5-min Rain = 0
KFAS 240005Z 15007KT 28/13 A3024 RMK A01 T02800128  RH  041%=      5-min Rain = 0
KFAS 240010Z 12006KT 27/13 A3024 RMK A01 T02740125  RH  041%=      5-min Rain = 0
KFAS 240015Z 12004KT 27/13 A3024 RMK A01 T02720126  RH  042%=      5-min Rain = 0
KFAS 240020Z 12004KT 27/14 A3024 RMK A01 T02680137  RH  046%=      5-min Rain = 0
KFAS 240025Z 11003KT 27/14 A3024 RMK A01 T02690142  RH  048%=      5-min Rain = 0
KFAS 240030Z 13007KT 27/14 A3024 RMK A01 T02680137  RH  046%=      5-min Rain = 0
KFAS 240035Z 12007KT 27/14 A3024 RMK A01 T02680135  RH  046%=      5-min Rain = 0
KFAS 240040Z 13007KT 27/13 A3024 RMK A01 T02700130  RH  043%=      5-min Rain = 0
KFAS 240045Z 12007KT 27/13 A3024 RMK A01 T02700134  RH  045%=      5-min Rain = 0
KFAS 240050Z 13008KT 27/13 A3024 RMK A01 T02690133  RH  045%=      5-min Rain = 0
KFAS 240055Z 13009KT 27/13 A3025 RMK A01 T02670132  RH  045%=      5-min Rain = 0
KFAS 240100Z 13010KT 27/13 A3025 RMK A01 T02660130  RH  045%=      5-min Rain = 0
KFAS 240105Z 14009KT 27/13 A3025 RMK A01 T02650129  RH  045%=      5-min Rain = 0
KFAS 240110Z 13008KT 26/13 A3025 RMK A01 T02630129  RH  045%=      5-min Rain = 0
KFAS 240115Z 13007KT 26/13 A3025 RMK A01 T02600130  RH  046%=      5-min Rain = 0
KFAS 240120Z 12008KT 26/13 A3025 RMK A01 T02580129  RH  046%=      5-min Rain = 0
KFAS 240125Z 12008KT 26/13 A3025 RMK A01 T02560129  RH  047%=      5-min Rain = 0
KFAS 240130Z 12007KT 25/13 A3025 RMK A01 T02510130  RH  049%=      5-min Rain = 0
KFAS 240135Z 13008KT 25/13 A3025 RMK A01 T02480130  RH  050%=      5-min Rain = 0
KFAS 240140Z 13008KT 25/13 A3025 RMK A01 T02450128  RH  050%=      5-min Rain = 0
KFAS 240145Z 13007KT 24/13 A3025 RMK A01 T02440128  RH  050%=      5-min Rain = 0
KFAS 240150Z 13007KT 24/13 A3025 RMK A01 T02420129  RH  051%=      5-min Rain = 0
KFAS 240155Z 13007KT 24/13 A3025 RMK A01 T02390130  RH  052%=      5-min Rain = 0
KFAS 240200Z 14008KT 24/13 A3025 RMK A01 T02350131  RH  054%=      5-min Rain = 0
KFAS 240205Z 14008KT 23/13 A3025 RMK A01 T02330130  RH  054%=      5-min Rain = 0
KFAS 240210Z 14008KT 23/13 A3025 RMK A01 T02320129  RH  054%=      5-min Rain = 0
KFAS 240215Z 13008KT 23/13 A3025 RMK A01 T02310128  RH  055%=      5-min Rain = 0
KFAS 240220Z 13008KT 23/13 A3026 RMK A01 T02290128  RH  055%=      5-min Rain = 0
KFAS 240225Z 14008KT 23/13 A3026 RMK A01 T02270127  RH  055%=      5-min Rain = 0
KFAS 240230Z 14009KT 23/13 A3026 RMK A01 T02260125  RH  055%=      5-min Rain = 0
KFAS 240235Z 14008KT 23/12 A3026 RMK A01 T02270124  RH  054%=      5-min Rain = 0
KFAS 240240Z 14008KT 23/12 A3026 RMK A01 T02260124  RH  054%=      5-min Rain = 0
KFAS 240245Z 14008KT 22/12 A3026 RMK A01 T02240124  RH  055%=      5-min Rain = 0
KFAS 240250Z 14007KT 22/12 A3027 RMK A01 T02220124  RH  056%=      5-min Rain = 0
KFAS 240255Z 13008KT 22/13 A3027 RMK A01 T02200125  RH  057%=      5-min Rain = 0
KFAS 240300Z 13007KT 22/13 A3027 RMK A01 T02180125  RH  058%=      5-min Rain = 0
KFAS 240305Z 13007KT 22/13 A3027 RMK A01 T02160125  RH  058%=      5-min Rain = 0
KFAS 240310Z 13007KT 22/13 A3028 RMK A01 T02150126  RH  059%=      5-min Rain = 0
KFAS 240315Z 13007KT 21/13 A3028 RMK A01 T02120127  RH  060%=      5-min Rain = 0
KFAS 240320Z 13007KT 21/13 A3028 RMK A01 T02100127  RH  061%=      5-min Rain = 0
KFAS 240325Z 13008KT 21/13 A3028 RMK A01 T02080127  RH  062%=      5-min Rain = 0
KFAS 240330Z 13008KT 21/13 A3028 RMK A01 T02080127  RH  062%=      5-min Rain = 0
KFAS 240335Z 13008KT 21/13 A3028 RMK A01 T02070127  RH  062%=      5-min Rain = 0
KFAS 240340Z 13008KT 21/13 A3029 RMK A01 T02090126  RH  062%=      5-min Rain = 0
KFAS 240345Z 13008KT 21/13 A3029 RMK A01 T02110126  RH  061%=      5-min Rain = 0
KFAS 240350Z 15007KT 21/13 A3029 RMK A01 T02100125  RH  061%=      5-min Rain = 0
KFAS 240355Z 15007KT 21/13 A3029 RMK A01 T02060125  RH  062%=      5-min Rain = 0
KFAS 240400Z 14007KT 20/13 A3029 RMK A01 T02020126  RH  064%=      5-min Rain = 0
KFAS 240405Z 14007KT 20/13 A3029 RMK A01 T02010126  RH  065%=      5-min Rain = 0
KFAS 240410Z 13006KT 20/13 A303 RMK A01 T01990127  RH  066%=      5-min Rain = 0
KFAS 240415Z 14006KT 20/13 A303 RMK A01 T01970128  RH  067%=      5-min Rain = 0
KFAS 240420Z 13006KT 20/13 A3029 RMK A01 T01960128  RH  067%=      5-min Rain = 0
KFAS 240425Z 14006KT 20/13 A303 RMK A01 T01950128  RH  068%=      5-min Rain = 0
KFAS 240430Z 13007KT 20/13 A303 RMK A01 T01950128  RH  068%=      5-min Rain = 0
KFAS 240435Z 13007KT 19/13 A303 RMK A01 T01940128  RH  068%=      5-min Rain = 0
KFAS 240440Z 13007KT 19/13 A303 RMK A01 T01940127  RH  068%=      5-min Rain = 0
KFAS 240445Z 13007KT 20/13 A303 RMK A01 T01950126  RH  067%=      5-min Rain = 0
KFAS 240450Z 14008KT 20/13 A303 RMK A01 T01960125  RH  066%=      5-min Rain = 0
KFAS 240455Z 14007KT 20/13 A303 RMK A01 T01960125  RH  066%=      5-min Rain = 0

Page generated in 0.0093 seconds.